Fountain City, Indiana
Current Conditions -  °F | °C
As of 7:35 AM on Sunday 23 Nov 2014 (Local Time) from KVES Reporting Station
Overcast Overcast  
Wind Chill: 40°   Ceiling: 7500
Heat Index: 45°   Visibility: 10mi
Dew Point: 39°   Wind: 8mph
Humidity: 81%   Direction: 160°SSE
Pressure: 29.95"   Gusts: NA
Location:  39.96°N, 84.92°W
Report Text: KVES 231235Z AUTO 16007KT 10SM BKN075 OVC095 07/04 A2995 RMK AO2
Loading
Personal Weather Stations






























Interactive Weather Map New forecast layout! Learn more

10-Day Weather Forecast

Advertisements
Track Severe Weather on mobile